createdAt,value
2022-08-20T00:01:05.510Z,8.93
2022-08-20T00:03:39.385Z,7.95
2022-08-20T00:06:11.832Z,7.90
2022-08-20T00:08:40.969Z,7.03
2022-08-20T00:11:13.100Z,6.68
2022-08-20T00:13:48.408Z,7.20
2022-08-20T00:16:21.595Z,7.72
2022-08-20T00:19:02.271Z,7.88
2022-08-20T00:21:31.581Z,7.68
2022-08-20T00:24:00.607Z,7.43
2022-08-20T00:26:29.066Z,7.00
2022-08-20T00:28:59.549Z,8.07
2022-08-20T00:31:28.472Z,7.95
2022-08-20T00:33:59.414Z,7.72
2022-08-20T00:36:33.152Z,7.10
2022-08-20T00:39:03.281Z,7.75
2022-08-20T00:41:38.806Z,7.45
2022-08-20T00:44:09.624Z,8.13
2022-08-20T00:46:47.596Z,8.35
2022-08-20T00:49:26.847Z,7.60
2022-08-20T00:52:00.835Z,9.15
2022-08-20T00:54:50.658Z,9.05
2022-08-20T00:57:26.846Z,8.05
2022-08-20T01:00:24.121Z,7.78
2022-08-20T01:03:00.895Z,8.00
2022-08-20T01:05:46.099Z,7.90
2022-08-20T01:08:24.908Z,8.80
2022-08-20T01:11:06.926Z,9.38
2022-08-20T01:13:41.782Z,8.13
2022-08-20T01:16:24.442Z,7.93
2022-08-20T01:18:54.999Z,8.25
2022-08-20T01:21:49.778Z,8.68
2022-08-20T01:24:39.397Z,7.97
2022-08-20T01:27:10.197Z,8.52
2022-08-20T01:29:43.066Z,9.73
2022-08-20T01:32:17.433Z,9.73
2022-08-20T01:34:47.762Z,8.52
2022-08-20T01:37:17.120Z,8.23
2022-08-20T01:39:48.031Z,9.60
2022-08-20T01:42:25.183Z,9.75
2022-08-20T01:44:55.133Z,9.90
2022-08-20T01:47:40.073Z,10.90
2022-08-20T01:50:18.582Z,10.65
2022-08-20T01:53:17.056Z,10.38
2022-08-20T01:55:46.812Z,10.73
2022-08-20T01:58:15.942Z,10.95
2022-08-20T02:00:45.460Z,11.27
2022-08-20T02:03:16.333Z,11.43
2022-08-20T02:05:45.328Z,11.63
2022-08-20T02:08:15.303Z,11.43
2022-08-20T02:10:46.411Z,10.43
2022-08-20T02:13:15.559Z,11.27
2022-08-20T02:15:48.484Z,11.57
2022-08-20T02:18:22.131Z,10.40
2022-08-20T02:20:52.968Z,10.40
2022-08-20T02:23:23.116Z,9.73
2022-08-20T02:25:57.798Z,10.40
2022-08-20T02:28:29.244Z,10.38
2022-08-20T02:31:04.408Z,10.10
2022-08-20T02:33:41.144Z,10.50
2022-08-20T02:36:37.462Z,10.10
2022-08-20T02:39:08.006Z,10.13
2022-08-20T02:41:38.286Z,12.10
2022-08-20T02:44:13.070Z,11.38
2022-08-20T02:46:44.940Z,11.82
2022-08-20T02:49:13.459Z,11.90
2022-08-20T02:51:44.908Z,11.23
2022-08-20T02:54:15.696Z,12.02
2022-08-20T02:56:44.216Z,12.40
2022-08-20T02:59:19.728Z,12.15
2022-08-20T03:02:00.331Z,11.90
2022-08-20T03:04:33.306Z,11.73
2022-08-20T03:07:04.823Z,11.20
2022-08-20T03:09:33.522Z,12.52
2022-08-20T03:12:05.228Z,12.45
2022-08-20T03:14:37.056Z,12.45
2022-08-20T03:17:15.181Z,12.95
2022-08-20T03:19:44.062Z,12.70
2022-08-20T03:22:16.140Z,14.13
2022-08-20T03:24:45.882Z,13.63
2022-08-20T03:27:14.983Z,12.57
2022-08-20T03:29:45.540Z,12.85
2022-08-20T03:32:20.243Z,12.50
2022-08-20T03:34:49.050Z,12.88
2022-08-20T03:37:24.400Z,13.25
2022-08-20T03:39:53.252Z,12.98
2022-08-20T03:42:22.410Z,12.57
2022-08-20T03:44:58.562Z,11.30
2022-08-20T03:47:29.241Z,12.63
2022-08-20T03:50:02.471Z,12.13
2022-08-20T03:52:36.448Z,12.73
2022-08-20T03:55:07.036Z,13.55
2022-08-20T03:57:39.372Z,13.05
2022-08-20T04:00:09.099Z,11.40
2022-08-20T04:02:58.717Z,12.15
2022-08-20T04:05:36.924Z,12.77
2022-08-20T04:08:05.499Z,13.00
2022-08-20T04:10:33.957Z,11.48
2022-08-20T04:13:03.951Z,12.57
2022-08-20T04:15:36.385Z,11.98
2022-08-20T04:18:07.725Z,13.38
2022-08-20T04:20:37.875Z,13.00
2022-08-20T04:23:08.499Z,11.93
2022-08-20T04:25:43.171Z,11.93
2022-08-20T04:28:14.602Z,10.93
2022-08-20T04:30:52.084Z,11.10
2022-08-20T04:33:22.723Z,9.75
2022-08-20T04:36:06.349Z,10.48
2022-08-20T04:38:47.800Z,9.73
2022-08-20T04:41:24.502Z,9.75
2022-08-20T04:43:56.352Z,9.85
2022-08-20T04:46:29.187Z,8.77
2022-08-20T04:49:03.063Z,10.60
2022-08-20T04:51:34.303Z,10.00
2022-08-20T04:54:06.422Z,10.52
2022-08-20T04:56:39.989Z,11.00
2022-08-20T04:59:09.119Z,9.43
2022-08-20T05:01:38.068Z,9.75
2022-08-20T05:04:09.889Z,11.07
2022-08-20T05:06:41.763Z,12.60
2022-08-20T05:09:10.551Z,17.05
2022-08-20T05:11:39.102Z,10.20
2022-08-20T05:14:16.423Z,9.57
2022-08-20T05:16:48.268Z,9.68
2022-08-20T05:19:24.141Z,8.50
2022-08-20T05:21:56.246Z,8.07
2022-08-20T05:24:33.501Z,8.70
2022-08-20T05:27:03.460Z,8.00
2022-08-20T05:29:34.874Z,8.43
2022-08-20T05:32:10.519Z,7.50
2022-08-20T05:34:41.357Z,8.82
2022-08-20T05:37:11.257Z,8.70
2022-08-20T05:39:48.102Z,9.15
2022-08-20T05:42:17.777Z,8.77
2022-08-20T05:44:55.405Z,7.57
2022-08-20T05:47:28.189Z,7.53
2022-08-20T05:49:59.325Z,7.18
2022-08-20T05:52:44.053Z,7.30
2022-08-20T05:55:13.821Z,7.50
2022-08-20T05:57:46.010Z,7.55
2022-08-20T06:00:23.344Z,7.45
2022-08-20T06:03:23.835Z,7.97
2022-08-20T06:08:31.700Z,7.60
2022-08-20T06:11:04.506Z,7.15
2022-08-20T06:13:42.152Z,7.10
2022-08-20T06:16:16.441Z,7.60
2022-08-20T06:18:52.829Z,7.03
2022-08-20T06:21:30.184Z,6.75
2022-08-20T06:24:01.559Z,6.28
2022-08-20T06:26:34.581Z,6.63
2022-08-20T06:29:05.622Z,6.78
2022-08-20T06:31:40.975Z,7.78
2022-08-20T06:34:10.068Z,7.80
2022-08-20T06:36:46.785Z,7.13
2022-08-20T06:39:15.840Z,6.88
2022-08-20T06:41:58.401Z,6.93
2022-08-20T06:44:29.194Z,6.88
2022-08-20T06:47:05.033Z,6.85
2022-08-20T06:49:37.537Z,6.93
2022-08-20T06:52:07.751Z,7.55
2022-08-20T06:54:45.187Z,7.60
2022-08-20T06:57:25.465Z,7.07
2022-08-20T06:59:55.848Z,7.20
2022-08-20T07:02:30.089Z,7.90
2022-08-20T07:05:09.345Z,7.10
2022-08-20T07:07:51.603Z,7.63
2022-08-20T07:10:50.110Z,7.70
2022-08-20T07:13:25.550Z,7.05
2022-08-20T07:15:56.966Z,6.97
2022-08-20T07:18:28.117Z,6.40
2022-08-20T07:20:58.901Z,6.40
2022-08-20T07:23:36.765Z,6.13
2022-08-20T07:26:08.689Z,7.18
2022-08-20T07:28:36.996Z,6.40
2022-08-20T07:31:23.266Z,6.55
2022-08-20T07:36:48.514Z,6.45
2022-08-20T07:39:20.560Z,6.30
2022-08-20T07:42:03.546Z,6.30
2022-08-20T07:44:32.788Z,5.53
2022-08-20T07:47:09.167Z,5.95
2022-08-20T07:49:42.147Z,6.93
2022-08-20T07:52:10.791Z,5.95
2022-08-20T07:54:41.774Z,6.38
2022-08-20T07:57:19.795Z,6.28
2022-08-20T08:00:11.328Z,7.03
2022-08-20T08:06:45.526Z,5.85
2022-08-20T08:09:21.806Z,6.10
2022-08-20T08:12:13.944Z,10.35
2022-08-20T08:14:45.539Z,7.43
2022-08-20T08:17:17.727Z,6.43
2022-08-20T08:20:21.223Z,8.25
2022-08-20T08:23:24.764Z,8.32
2022-08-20T08:26:38.593Z,7.03
2022-08-20T08:30:01.645Z,7.40
2022-08-20T08:33:19.588Z,6.00
2022-08-20T08:39:00.351Z,6.68
2022-08-20T08:42:09.121Z,5.78
2022-08-20T08:45:12.103Z,7.50
2022-08-20T08:47:41.802Z,5.70
2022-08-20T08:53:33.723Z,6.43
2022-08-20T08:56:07.407Z,6.90
2022-08-20T08:58:45.147Z,6.30
2022-08-20T09:01:54.119Z,6.60
2022-08-20T09:04:21.746Z,6.72
2022-08-20T09:06:53.883Z,7.50
2022-08-20T09:09:27.339Z,6.03
2022-08-20T09:14:44.733Z,6.82
2022-08-20T09:17:14.215Z,6.65
2022-08-20T09:19:44.442Z,6.63
2022-08-20T09:22:19.615Z,7.22
2022-08-20T09:24:50.766Z,6.82
2022-08-20T09:27:20.755Z,6.70
2022-08-20T09:29:53.608Z,8.35
2022-08-20T09:32:49.228Z,6.47
2022-08-20T09:38:26.436Z,6.03
2022-08-20T09:40:55.101Z,6.40
2022-08-20T09:43:26.170Z,6.60
2022-08-20T09:46:03.172Z,6.43
2022-08-20T09:48:33.515Z,6.05
2022-08-20T09:51:05.035Z,6.78
2022-08-20T09:53:36.179Z,6.90
2022-08-20T09:56:07.713Z,6.18
2022-08-20T09:58:51.495Z,7.00
2022-08-20T10:01:25.905Z,7.32
2022-08-20T10:03:56.689Z,6.80
2022-08-20T10:06:30.924Z,5.82
2022-08-20T10:09:03.838Z,6.60
2022-08-20T10:11:41.023Z,7.03
2022-08-20T10:14:13.012Z,7.05
2022-08-20T10:16:59.826Z,6.80
2022-08-20T10:19:32.348Z,6.22
2022-08-20T10:22:17.669Z,6.40
2022-08-20T10:24:46.810Z,7.20
2022-08-20T10:27:15.154Z,6.30
2022-08-20T10:29:47.096Z,6.30
2022-08-20T10:32:21.047Z,6.88
2022-08-20T10:34:54.050Z,6.20
2022-08-20T10:37:28.763Z,6.00
2022-08-20T10:40:16.078Z,6.03
2022-08-20T10:42:53.248Z,5.93
2022-08-20T10:45:26.461Z,6.45
2022-08-20T10:47:56.767Z,9.43
2022-08-20T10:50:30.986Z,6.32
2022-08-20T10:53:05.844Z,5.97
2022-08-20T10:55:39.069Z,5.65
2022-08-20T10:58:11.450Z,5.90
2022-08-20T11:00:49.841Z,5.63
2022-08-20T11:03:25.608Z,5.60
2022-08-20T11:05:59.654Z,5.80
2022-08-20T11:08:56.824Z,6.47
2022-08-20T11:11:38.673Z,6.07
2022-08-20T11:14:22.671Z,6.07
2022-08-20T11:17:00.436Z,5.50
2022-08-20T11:19:30.112Z,5.60
2022-08-20T11:22:01.830Z,6.18
2022-08-20T11:24:31.164Z,5.63
2022-08-20T11:27:08.524Z,5.95
2022-08-20T11:29:49.483Z,6.30
2022-08-20T11:32:31.296Z,6.32
2022-08-20T11:35:14.058Z,5.68
2022-08-20T11:37:58.728Z,5.78
2022-08-20T11:40:47.090Z,5.80
2022-08-20T11:43:24.174Z,5.63
2022-08-20T11:46:07.432Z,6.57
2022-08-20T11:48:39.501Z,6.50
2022-08-20T11:51:08.160Z,6.78
2022-08-20T11:53:38.831Z,6.07
2022-08-20T11:56:27.367Z,6.20
2022-08-20T11:59:16.241Z,6.68
2022-08-20T12:02:02.900Z,7.10
2022-08-20T12:04:55.150Z,6.15
2022-08-20T12:07:42.770Z,7.03
2022-08-20T12:25:17.337Z,6.88
2022-08-20T12:27:50.983Z,6.60
2022-08-20T12:33:24.022Z,7.70
2022-08-20T12:38:47.308Z,7.53
2022-08-20T12:41:19.053Z,6.70
2022-08-20T12:43:51.312Z,7.30
2022-08-20T12:46:24.389Z,7.73
2022-08-20T12:49:07.378Z,6.80
2022-08-20T12:51:47.933Z,6.70
2022-08-20T12:57:34.788Z,7.00
2022-08-20T13:00:50.733Z,7.03
2022-08-20T13:03:26.641Z,6.63
2022-08-20T13:08:45.521Z,6.70
2022-08-20T13:11:13.707Z,6.63
2022-08-20T13:14:16.542Z,6.82
2022-08-20T13:39:58.186Z,6.90
2022-08-20T13:42:31.633Z,6.43
2022-08-20T13:44:59.830Z,7.07
2022-08-20T13:48:02.857Z,7.35
2022-08-20T13:50:39.556Z,6.53
2022-08-20T13:56:12.467Z,6.30
2022-08-20T14:02:07.413Z,6.57
2022-08-20T14:04:39.527Z,7.28
2022-08-20T14:07:32.022Z,6.60
2022-08-20T14:10:19.042Z,6.80
2022-08-20T14:12:51.524Z,6.40
2022-08-20T14:15:20.988Z,7.57
2022-08-20T14:17:54.540Z,7.07
2022-08-20T14:20:39.117Z,8.15
2022-08-20T14:23:09.129Z,10.23
2022-08-20T14:25:43.446Z,7.35
2022-08-20T14:28:35.441Z,14.90
2022-08-20T14:31:27.285Z,7.72
2022-08-20T14:33:58.069Z,11.13
2022-08-20T14:36:37.200Z,7.57
2022-08-20T14:39:44.735Z,6.40
2022-08-20T14:45:38.438Z,8.70
2022-08-20T14:48:32.946Z,7.57
2022-08-20T14:51:05.417Z,6.75
2022-08-20T14:53:45.845Z,7.78
2022-08-20T14:56:18.121Z,7.05
2022-08-20T14:58:55.457Z,6.57
2022-08-20T15:01:25.598Z,7.50
2022-08-20T15:03:56.575Z,7.20
2022-08-20T15:06:27.381Z,6.85
2022-08-20T15:08:57.589Z,7.40
2022-08-20T15:11:41.090Z,7.10
2022-08-20T15:14:20.591Z,6.82
2022-08-20T15:16:57.625Z,7.43
2022-08-20T15:19:27.845Z,7.82
2022-08-20T15:26:29.740Z,7.20
2022-08-20T15:29:05.252Z,7.93
2022-08-20T15:31:34.130Z,6.38
2022-08-20T15:34:07.551Z,7.53
2022-08-20T15:36:49.107Z,6.82
2022-08-20T15:39:37.304Z,7.60
2022-08-20T15:42:25.428Z,6.75
2022-08-20T15:44:55.511Z,6.90
2022-08-20T15:47:43.986Z,7.45
2022-08-20T15:50:52.526Z,7.30
2022-08-20T15:53:53.378Z,6.53
2022-08-20T15:56:53.022Z,7.28
2022-08-20T15:59:49.927Z,6.93
2022-08-20T16:02:44.156Z,6.50
2022-08-20T16:05:36.840Z,7.45
2022-08-20T16:08:20.858Z,7.25
2022-08-20T16:11:05.743Z,7.05
2022-08-20T16:13:53.870Z,7.13
2022-08-20T16:16:37.414Z,9.32
2022-08-20T16:19:11.016Z,8.93
2022-08-20T16:21:55.234Z,9.07
2022-08-20T16:24:31.062Z,9.00
2022-08-20T16:27:24.893Z,6.72
2022-08-20T16:30:22.925Z,11.40
2022-08-20T16:33:08.257Z,9.20
2022-08-20T16:36:06.220Z,8.02
2022-08-20T16:38:48.388Z,14.85
2022-08-20T16:41:45.874Z,8.75
2022-08-20T16:44:41.559Z,7.40
2022-08-20T16:47:26.682Z,7.47
2022-08-20T16:50:24.555Z,8.10
2022-08-20T16:53:02.298Z,10.75
2022-08-20T16:55:34.363Z,9.07
2022-08-20T16:58:11.681Z,8.63
2022-08-20T17:01:16.457Z,8.15
2022-08-20T17:04:01.043Z,8.20
2022-08-20T17:06:49.042Z,7.43
2022-08-20T17:09:45.175Z,8.07
2022-08-20T17:12:39.420Z,8.60
2022-08-20T17:15:18.185Z,7.90
2022-08-20T17:17:47.464Z,8.60
2022-08-20T17:20:32.868Z,9.35
2022-08-20T17:23:18.470Z,9.32
2022-08-20T17:25:58.440Z,13.75
2022-08-20T17:28:34.582Z,13.60
2022-08-20T17:31:05.178Z,12.65
2022-08-20T17:33:40.797Z,10.95
2022-08-20T17:36:18.145Z,9.63
2022-08-20T17:38:49.061Z,10.35
2022-08-20T17:41:36.572Z,11.77
2022-08-20T17:44:12.635Z,10.60
2022-08-20T17:46:49.265Z,10.30
2022-08-20T17:49:44.419Z,11.43
2022-08-20T17:52:48.971Z,11.00
2022-08-20T17:55:42.631Z,14.48
2022-08-20T17:58:18.955Z,17.67
2022-08-20T18:00:49.169Z,17.55
2022-08-20T18:07:31.894Z,14.82
2022-08-20T18:10:32.391Z,13.25
2022-08-20T18:13:25.624Z,12.65
2022-08-20T18:15:58.912Z,18.80
2022-08-20T18:18:35.451Z,18.15
2022-08-20T18:21:37.857Z,14.63
2022-08-20T18:24:19.008Z,13.13
2022-08-20T18:26:59.057Z,12.50
2022-08-20T18:29:34.993Z,14.27
2022-08-20T18:32:33.047Z,14.52
2022-08-20T18:35:31.063Z,12.40
2022-08-20T18:38:13.202Z,13.68
2022-08-20T18:40:54.441Z,15.10
2022-08-20T18:43:33.244Z,13.65
2022-08-20T18:49:13.597Z,14.05
2022-08-20T18:52:28.987Z,13.90
2022-08-20T18:55:11.483Z,11.05
2022-08-20T18:57:58.332Z,6.40
2022-08-20T19:00:44.445Z,7.95
2022-08-20T19:03:58.509Z,8.88
2022-08-20T19:07:04.420Z,11.90
2022-08-20T19:10:20.432Z,15.82
2022-08-20T19:13:46.568Z,8.32
2022-08-20T19:16:40.537Z,6.32
2022-08-20T19:19:21.384Z,5.25
2022-08-20T19:21:52.052Z,6.68
2022-08-20T19:24:26.436Z,8.18
2022-08-20T19:26:58.726Z,7.05
2022-08-20T19:29:56.962Z,4.78
2022-08-20T19:35:18.219Z,10.15
2022-08-20T19:38:07.741Z,6.65
2022-08-20T19:40:43.545Z,11.70
2022-08-20T19:59:26.199Z,9.73
2022-08-20T20:02:00.246Z,8.18
2022-08-20T20:04:36.871Z,10.63
2022-08-20T20:07:16.809Z,12.45
2022-08-20T20:09:46.532Z,15.60
2022-08-20T20:12:22.498Z,6.88
2022-08-20T20:14:54.940Z,4.78
2022-08-20T20:17:29.546Z,5.30
2022-08-20T20:20:01.004Z,6.33
2022-08-20T20:22:32.327Z,6.75
2022-08-20T20:25:19.120Z,11.85
2022-08-20T20:27:53.970Z,8.35
2022-08-20T20:30:29.422Z,8.02
2022-08-20T20:32:59.798Z,5.50
2022-08-20T20:35:38.215Z,5.10
2022-08-20T20:38:10.603Z,4.90
2022-08-20T20:40:53.167Z,5.60
2022-08-20T20:43:39.489Z,6.53
2022-08-20T20:46:13.407Z,6.40
2022-08-20T20:48:46.233Z,11.85
2022-08-20T20:51:24.786Z,11.88
2022-08-20T20:53:55.202Z,4.60
2022-08-20T20:56:46.855Z,3.50
2022-08-20T20:59:15.303Z,5.07
2022-08-20T21:01:48.837Z,5.00
2022-08-20T21:04:21.384Z,3.95
2022-08-20T21:06:54.413Z,3.70
2022-08-20T21:09:23.794Z,4.00
2022-08-20T21:11:53.063Z,2.65
2022-08-20T21:14:21.172Z,4.85
2022-08-20T21:16:49.624Z,3.72
2022-08-20T21:19:19.519Z,4.60
2022-08-20T21:21:47.546Z,3.25
2022-08-20T21:24:18.500Z,3.80
2022-08-20T21:26:47.540Z,6.10
2022-08-20T21:29:32.247Z,6.97
2022-08-20T21:32:01.505Z,5.43
2022-08-20T21:34:30.314Z,6.57
2022-08-20T21:36:58.974Z,5.07
2022-08-20T21:39:28.714Z,5.63
2022-08-20T21:42:00.772Z,5.57
2022-08-20T21:44:30.889Z,6.22
2022-08-20T21:47:02.546Z,4.75
2022-08-20T21:49:32.179Z,5.45
2022-08-20T21:52:00.272Z,5.15
2022-08-20T21:54:29.267Z,5.15
2022-08-20T21:57:01.995Z,4.72
2022-08-20T21:59:30.588Z,5.60
2022-08-20T22:02:01.369Z,5.28
2022-08-20T22:04:34.819Z,5.00
2022-08-20T22:07:04.707Z,5.43
2022-08-20T22:09:33.590Z,5.82
2022-08-20T22:12:02.365Z,5.00
2022-08-20T22:14:31.433Z,5.55
2022-08-20T22:16:59.665Z,5.82
2022-08-20T22:19:27.794Z,5.45
2022-08-20T22:21:56.554Z,5.05
2022-08-20T22:24:28.886Z,5.32
2022-08-20T22:26:57.920Z,5.00
2022-08-20T22:29:26.504Z,5.53
2022-08-20T22:31:55.138Z,5.30
2022-08-20T22:34:23.624Z,4.75
2022-08-20T22:36:54.467Z,5.18
2022-08-20T22:39:22.528Z,5.70
2022-08-20T22:41:50.939Z,6.70
2022-08-20T22:44:19.219Z,5.63
2022-08-20T22:46:50.612Z,5.75
2022-08-20T22:49:26.819Z,5.25
2022-08-20T22:51:56.672Z,5.32
2022-08-20T22:54:26.246Z,5.15
2022-08-20T22:56:55.313Z,4.85
2022-08-20T22:59:23.870Z,5.53
2022-08-20T23:01:52.963Z,5.38
2022-08-20T23:04:31.696Z,5.22
2022-08-20T23:07:00.811Z,5.22
2022-08-20T23:09:30.332Z,5.07
2022-08-20T23:11:59.339Z,5.10
2022-08-20T23:14:27.680Z,5.05
2022-08-20T23:17:03.929Z,5.30
2022-08-20T23:19:32.864Z,5.97
2022-08-20T23:22:00.914Z,5.18
2022-08-20T23:24:29.565Z,4.82
2022-08-20T23:26:58.001Z,5.15
2022-08-20T23:29:26.998Z,6.03
2022-08-20T23:31:56.131Z,5.85
2022-08-20T23:34:26.387Z,5.32
2022-08-20T23:36:56.640Z,5.93
2022-08-20T23:39:26.269Z,5.80
2022-08-20T23:41:55.033Z,5.32
2022-08-20T23:44:26.599Z,5.30
2022-08-20T23:47:00.184Z,5.63
2022-08-20T23:49:29.835Z,5.40
2022-08-20T23:52:00.562Z,5.53
2022-08-20T23:54:29.834Z,5.28
2022-08-20T23:56:57.833Z,7.22
2022-08-20T23:59:26.584Z,6.65
